Time;durP1;ratioP1;P1;durP2;ratioP2;P2;SDS_P1;SDS_P2;PMS_P1;PMS_P2;Temp;Humidity;BMP_temperature;BMP_pressure;BME280_temperature;BME280_humidity;BME280_pressure;Samples;Min_cycle;Max_cycle;Signal;HPM_P1;HPM_P2
2022/09/15 00:00:36;;;;;;;4.30;2.30;;;20.60;50.10;;;;;;10551859;28;20256;-76
2022/09/15 00:05:39;;;;;;;2.50;1.70;;;20.50;49.30;;;;;;10555412;27;20696;-77
2022/09/15 00:10:49;;;;;;;2.77;2.40;;;20.60;50.30;;;;;;10545175;28;20267;-76
2022/09/15 00:15:52;;;;;;;4.23;2.40;;;20.60;50.90;;;;;;10547305;28;20691;-76
2022/09/15 01:56:27;;;;;;;1.57;1.43;;;20.90;51.00;;;;;;10552596;27;20298;-78
2022/09/15 02:01:39;;;;;;;2.90;1.67;;;21.00;50.90;;;;;;10553110;27;20692;-78
2022/09/15 02:06:52;;;;;;;1.50;1.40;;;21.00;51.80;;;;;;10561299;27;20643;-78
2022/09/15 02:12:03;;;;;;;2.97;1.80;;;21.10;51.20;;;;;;10558915;27;20305;-78
2022/09/15 02:17:06;;;;;;;2.60;1.60;;;21.10;51.20;;;;;;10561627;28;20219;-78
2022/09/15 02:22:16;;;;;;;1.87;1.40;;;21.20;50.60;;;;;;10561279;28;20226;-78
2022/09/15 02:27:24;;;;;;;2.00;1.80;;;21.20;50.90;;;;;;10563429;27;20275;-78
2022/09/15 02:32:30;;;;;;;2.93;1.60;;;21.20;50.90;;;;;;10560742;28;20254;-78
2022/09/15 02:37:36;;;;;;;2.33;1.80;;;21.20;50.40;;;;;;10562135;28;20275;-76
2022/09/15 02:42:41;;;;;;;2.20;1.70;;;21.20;50.20;;;;;;10560519;28;20215;-76
2022/09/15 02:47:44;;;;;;;1.70;1.60;;;21.20;50.40;;;;;;10559169;28;20287;-75
2022/09/15 02:52:47;;;;;;;1.70;1.60;;;21.20;50.00;;;;;;10561475;27;20238;-76
2022/09/15 02:57:52;;;;;;;3.10;1.80;;;21.20;49.80;;;;;;10557152;27;20226;-78
2022/09/15 03:02:55;;;;;;;2.10;1.90;;;21.20;50.20;;;;;;10551046;28;20656;-78
2022/09/15 03:07:59;;;;;;;1.63;1.50;;;21.20;50.00;;;;;;10570052;28;20961;-78
2022/09/15 03:13:03;;;;;;;2.40;1.57;;;21.20;50.00;;;;;;10570229;28;20218;-78
2022/09/15 03:18:07;;;;;;;2.07;1.70;;;21.20;49.80;;;;;;10568050;28;20223;-78
2022/09/15 03:23:10;;;;;;;2.53;1.60;;;21.20;49.80;;;;;;10560853;27;20231;-78
2022/09/15 03:28:14;;;;;;;1.60;1.50;;;21.20;49.80;;;;;;10566097;28;20226;-77
2022/09/15 03:33:20;;;;;;;3.17;1.60;;;21.10;49.80;;;;;;10562228;28;20219;-78
2022/09/15 03:38:24;;;;;;;1.40;1.30;;;21.10;49.70;;;;;;10567662;28;20739;-78
2022/09/15 03:43:29;;;;;;;1.97;1.30;;;21.10;49.70;;;;;;10548939;28;20272;-78
2022/09/15 03:48:34;;;;;;;3.37;1.60;;;21.10;49.70;;;;;;10558095;27;20227;-78
2022/09/15 03:53:39;;;;;;;2.07;1.43;;;21.10;50.40;;;;;;10557000;28;20231;-78
2022/09/15 03:58:43;;;;;;;2.07;1.50;;;21.10;49.70;;;;;;10558140;27;21066;-76
2022/09/15 04:03:47;;;;;;;3.23;1.40;;;21.10;49.70;;;;;;10555959;27;20235;-78
2022/09/15 04:08:54;;;;;;;1.83;1.57;;;21.10;49.70;;;;;;10549740;28;20223;-78
2022/09/15 04:13:58;;;;;;;2.80;1.40;;;21.10;49.70;;;;;;10561335;27;20280;-78
2022/09/15 04:19:01;;;;;;;1.60;1.50;;;21.10;49.70;;;;;;10569992;27;20219;-78
2022/09/15 04:24:05;;;;;;;2.00;1.57;;;21.00;49.60;;;;;;10567079;27;20228;-76
2022/09/15 04:29:14;;;;;;;1.33;1.20;;;21.00;49.60;;;;;;10572302;27;20911;-76
2022/09/15 04:34:17;;;;;;;3.13;1.57;;;21.00;49.60;;;;;;10564040;28;20662;-76
2022/09/15 04:39:21;;;;;;;1.63;1.33;;;21.00;49.60;;;;;;10565474;28;20226;-77
2022/09/15 04:44:25;;;;;;;2.30;1.47;;;21.00;49.60;;;;;;10559764;28;20272;-77
2022/09/15 04:49:28;;;;;;;1.80;1.57;;;21.00;49.60;;;;;;10569702;27;20218;-76
2022/09/15 04:54:34;;;;;;;2.10;1.60;;;21.00;49.60;;;;;;10554137;28;20600;-77
2022/09/15 04:59:39;;;;;;;1.63;1.53;;;20.90;49.50;;;;;;10559389;27;20232;-81
2022/09/15 05:04:42;;;;;;;3.30;1.60;;;20.90;49.50;;;;;;10566049;28;20368;-77
2022/09/15 05:09:46;;;;;;;1.70;1.60;;;20.90;49.50;;;;;;10556349;28;20223;-76
2022/09/15 05:14:50;;;;;;;1.60;1.50;;;20.90;49.50;;;;;;10559317;27;20260;-78
2022/09/15 05:19:53;;;;;;;2.90;1.43;;;20.90;49.50;;;;;;10570230;27;20281;-79
2022/09/15 05:24:56;;;;;;;2.63;1.47;;;20.90;49.60;;;;;;10575909;27;20241;-77
2022/09/15 05:30:02;;;;;;;1.77;1.30;;;20.90;49.60;;;;;;10570368;27;20234;-78
2022/09/15 05:35:25;;;;;;;1.97;1.40;;;20.90;49.50;;;;;;10577835;27;20231;-79
2022/09/15 05:40:28;;;;;;;1.83;1.30;;;20.90;49.50;;;;;;10583865;28;20238;-80
2022/09/15 05:45:33;;;;;;;1.93;1.40;;;20.90;49.50;;;;;;10580304;27;20223;-78
2022/09/15 05:50:37;;;;;;;1.93;1.50;;;21.00;49.60;;;;;;10573984;27;20218;-80
2022/09/15 05:55:40;;;;;;;1.50;1.40;;;21.00;49.60;;;;;;10575068;27;20227;-80
2022/09/15 06:00:45;;;;;;;1.83;1.33;;;21.10;49.50;;;;;;10575463;27;20227;-80
2022/09/15 06:05:48;;;;;;;1.53;1.40;;;21.20;49.30;;;;;;10580800;27;20256;-80
2022/09/15 06:10:51;;;;;;;1.30;1.20;;;21.20;49.20;;;;;;10578821;28;20722;-80
2022/09/15 06:16:00;;;;;;;1.50;1.40;;;21.20;49.20;;;;;;10578561;27;20231;-79
2022/09/15 06:21:06;;;;;;;2.17;1.50;;;21.30;48.90;;;;;;10575885;27;20261;-80
2022/09/15 06:26:11;;;;;;;3.97;1.60;;;21.30;49.00;;;;;;10574404;27;20223;-79
2022/09/15 06:31:16;;;;;;;2.87;1.50;;;21.30;48.90;;;;;;10574748;28;20242;-80
2022/09/15 06:36:21;;;;;;;1.30;1.20;;;21.40;49.00;;;;;;10572754;27;20235;-80
2022/09/15 06:41:24;;;;;;;1.43;1.30;;;21.40;48.90;;;;;;10575725;27;20227;-79
2022/09/15 06:46:29;;;;;;;1.93;1.20;;;21.50;49.10;;;;;;10576376;27;20234;-81
2022/09/15 06:51:34;;;;;;;2.27;1.40;;;21.50;48.60;;;;;;10577929;28;20219;-80
2022/09/15 06:56:38;;;;;;;1.30;1.20;;;21.60;48.90;;;;;;10569671;28;20231;-80
2022/09/15 07:01:43;;;;;;;1.30;1.20;;;21.60;48.40;;;;;;10574751;27;20227;-80
2022/09/15 07:06:46;;;;;;;0.90;0.90;;;21.70;48.30;;;;;;10570316;27;20231;-81
2022/09/15 07:11:49;;;;;;;2.37;1.30;;;21.60;48.50;;;;;;10562844;27;20276;-80
2022/09/15 07:16:54;;;;;;;1.20;1.20;;;21.70;48.30;;;;;;10560936;28;20283;-79
2022/09/15 07:21:57;;;;;;;2.17;1.30;;;21.70;48.20;;;;;;10561369;28;21072;-80
2022/09/15 07:27:00;;;;;;;1.63;1.50;;;21.80;48.30;;;;;;10570464;28;20252;-80
2022/09/15 07:32:05;;;;;;;4.00;1.30;;;21.80;48.10;;;;;;10562034;27;20219;-78
2022/09/15 07:37:09;;;;;;;1.20;1.10;;;21.80;47.70;;;;;;10564272;27;20603;-79
2022/09/15 07:42:12;;;;;;;1.73;0.93;;;21.80;47.90;;;;;;10550287;27;20219;-81
2022/09/15 07:47:18;;;;;;;1.00;1.00;;;21.90;48.10;;;;;;10557275;28;20231;-78
2022/09/15 07:52:22;;;;;;;1.10;1.10;;;21.90;47.90;;;;;;10545631;28;20227;-77
2022/09/15 07:57:26;;;;;;;1.27;1.17;;;21.90;47.90;;;;;;10558111;28;20228;-78
2022/09/15 08:02:30;;;;;;;1.23;1.13;;;21.90;48.00;;;;;;10545887;28;20226;-77
2022/09/15 08:07:33;;;;;;;2.60;1.00;;;21.90;47.70;;;;;;10540142;28;20314;-79
2022/09/15 08:12:37;;;;;;;2.10;1.20;;;21.90;48.30;;;;;;10558908;28;20608;-78
2022/09/15 08:17:42;;;;;;;1.60;1.10;;;21.90;49.00;;;;;;10552518;28;20238;-79
2022/09/15 08:22:47;;;;;;;1.03;0.93;;;22.00;47.70;;;;;;10560362;28;20314;-78
2022/09/15 08:27:50;;;;;;;1.27;1.13;;;22.10;47.70;;;;;;10559402;28;20609;-79
2022/09/15 08:32:55;;;;;;;1.27;1.17;;;22.20;47.80;;;;;;10560499;28;20234;-78
2022/09/15 08:37:58;;;;;;;1.13;1.10;;;22.20;48.00;;;;;;10561609;28;20234;-76
2022/09/15 08:43:19;;;;;;;1.60;1.00;;;22.20;47.90;;;;;;10555771;28;20267;-78
2022/09/15 08:48:27;;;;;;;1.77;1.30;;;22.20;48.30;;;;;;10556878;28;20687;-76
2022/09/15 08:53:35;;;;;;;1.23;1.10;;;22.10;48.70;;;;;;10565775;28;20227;-78
2022/09/15 08:58:38;;;;;;;1.20;1.10;;;22.10;48.50;;;;;;10553536;28;20265;-77
2022/09/15 09:04:04;;;;;;;1.10;0.93;;;22.00;48.30;;;;;;10570542;28;20219;-78
2022/09/15 09:09:21;;;;;;;1.27;1.17;;;22.00;48.50;;;;;;10572236;27;20616;-79
2022/09/15 09:14:36;;;;;;;1.37;1.10;;;22.00;49.00;;;;;;10574409;27;20238;-81
2022/09/15 09:19:57;;;;;;;1.33;1.10;;;22.00;49.10;;;;;;10568640;27;20684;-79
2022/09/15 09:25:03;;;;;;;1.13;1.00;;;22.00;48.80;;;;;;10565942;28;20231;-78
2022/09/15 09:30:29;;;;;;;1.37;1.00;;;22.10;48.70;;;;;;10564787;28;20663;-79
2022/09/15 09:35:40;;;;;;;1.00;1.00;;;22.20;48.80;;;;;;10578763;27;20226;-82
2022/09/15 09:40:43;;;;;;;1.30;1.20;;;22.20;48.00;;;;;;10581468;27;20226;-82
2022/09/15 09:45:46;;;;;;;1.40;1.30;;;22.30;48.10;;;;;;10568199;28;20227;-80
2022/09/15 09:50:51;;;;;;;1.53;1.20;;;22.30;48.10;;;;;;10578876;27;20227;-81
2022/09/15 09:56:14;;;;;;;1.37;1.27;;;22.40;48.10;;;;;;10569998;27;20234;-79
2022/09/15 10:01:19;;;;;;;1.20;1.10;;;22.40;48.20;;;;;;10563609;27;20241;-82
2022/09/15 10:06:29;;;;;;;1.20;1.10;;;22.60;48.10;;;;;;10571913;28;20255;-83
2022/09/15 10:11:44;;;;;;;1.13;0.90;;;22.70;47.70;;;;;;10566131;27;20574;-83
2022/09/15 10:17:01;;;;;;;1.63;1.00;;;22.80;47.50;;;;;;10564337;27;20244;-82
2022/09/15 10:22:06;;;;;;;1.00;1.00;;;22.90;47.40;;;;;;10571200;27;20757;-81
2022/09/15 10:27:19;;;;;;;1.43;1.27;;;22.90;47.20;;;;;;10572693;28;20586;-81
2022/09/15 10:32:26;;;;;;;1.23;1.10;;;23.10;46.70;;;;;;10570526;27;20275;-82
2022/09/15 10:37:34;;;;;;;1.03;1.00;;;23.20;47.50;;;;;;10560430;27;20231;-81
2022/09/15 10:42:50;;;;;;;1.10;1.10;;;23.30;46.90;;;;;;10569172;27;20222;-77
2022/09/15 10:48:19;;;;;;;1.17;0.90;;;23.40;47.20;;;;;;10550004;27;20234;-76
2022/09/15 10:53:45;;;;;;;1.10;0.90;;;23.40;46.50;;;;;;10559798;27;20226;-76
2022/09/15 10:58:59;;;;;;;0.90;0.90;;;23.30;46.70;;;;;;10546050;28;20268;-77
2022/09/15 11:04:38;;;;;;;1.13;1.13;;;23.20;46.70;;;;;;10561225;28;20275;-76
2022/09/15 11:09:47;;;;;;;1.37;1.27;;;23.10;47.30;;;;;;10556318;27;20219;-77
2022/09/15 11:15:07;;;;;;;1.10;1.00;;;23.00;46.80;;;;;;10563125;27;20238;-83
2022/09/15 11:20:32;;;;;;;2.33;1.00;;;22.90;46.00;;;;;;10569871;28;20210;-81
2022/09/15 11:25:42;;;;;;;0.50;0.50;;;22.70;45.20;;;;;;10565450;27;20263;-82
2022/09/15 11:30:53;;;;;;;0.93;0.80;;;22.50;45.50;;;;;;10568126;27;20211;-81
2022/09/15 11:36:02;;;;;;;0.80;0.80;;;22.30;45.70;;;;;;10575614;28;20648;-79
2022/09/15 11:41:24;;;;;;;0.83;0.83;;;22.10;46.60;;;;;;10570507;28;20227;-79
2022/09/15 11:46:35;;;;;;;0.80;0.80;;;21.90;47.60;;;;;;10572263;27;20765;-79
2022/09/15 11:51:54;;;;;;;1.37;1.00;;;21.80;48.10;;;;;;10566346;28;20211;-80
2022/09/15 11:56:59;;;;;;;1.10;0.80;;;21.70;48.70;;;;;;10560219;28;20228;-79
2022/09/15 12:02:17;;;;;;;1.33;0.80;;;21.70;48.50;;;;;;10554385;27;20226;-80
2022/09/15 12:07:27;;;;;;;0.73;0.70;;;21.60;48.80;;;;;;10564176;28;20242;-79
2022/09/15 12:12:35;;;;;;;1.00;0.90;;;21.60;48.80;;;;;;10558229;28;20219;-81
2022/09/15 12:17:44;;;;;;;0.73;0.73;;;21.70;49.80;;;;;;10562770;28;20223;-80
2022/09/15 12:22:57;;;;;;;0.67;0.67;;;21.70;50.00;;;;;;10567353;28;20235;-79
2022/09/15 12:28:38;;;;;;;1.73;1.53;;;21.80;49.60;;;;;;10559267;28;20227;-80
2022/09/15 12:33:45;;;;;;;1.20;0.80;;;21.90;50.40;;;;;;10549684;27;20944;-82
2022/09/15 12:38:48;;;;;;;0.80;0.70;;;21.90;49.90;;;;;;10569584;28;20227;-81
2022/09/15 12:43:56;;;;;;;1.23;0.70;;;21.90;48.20;;;;;;10552407;28;20227;-80
2022/09/15 12:49:02;;;;;;;2.27;0.90;;;21.80;49.20;;;;;;10564206;28;20223;-77
2022/09/15 12:54:07;;;;;;;1.40;0.90;;;21.80;50.30;;;;;;10558512;28;20667;-76
2022/09/15 12:59:14;;;;;;;0.80;0.80;;;21.90;50.40;;;;;;10557197;27;20821;-77
2022/09/15 13:04:44;;;;;;;1.13;0.90;;;21.90;50.40;;;;;;10561472;27;20230;-77
2022/09/15 13:09:57;;;;;;;1.03;0.80;;;22.00;50.20;;;;;;10561184;27;20223;-77
2022/09/15 13:15:05;;;;;;;0.90;0.90;;;22.10;49.80;;;;;;10565403;27;20815;-76
2022/09/15 13:20:14;;;;;;;1.20;1.10;;;22.10;50.20;;;;;;10565188;28;20222;-77
2022/09/15 13:25:23;;;;;;;2.87;1.17;;;22.10;49.70;;;;;;10563380;27;20323;-77
2022/09/15 13:30:40;;;;;;;1.10;1.00;;;22.10;49.50;;;;;;10567513;27;20227;-76
2022/09/15 13:36:03;;;;;;;0.90;0.90;;;22.10;50.30;;;;;;10566447;27;21036;-76
2022/09/15 13:41:34;;;;;;;0.90;0.90;;;22.10;49.80;;;;;;10568614;27;20297;-76
2022/09/15 13:46:49;;;;;;;1.80;1.10;;;22.20;50.00;;;;;;10562858;28;20229;-77
2022/09/15 13:51:58;;;;;;;0.90;0.90;;;22.20;49.60;;;;;;10567693;27;20227;-77
2022/09/15 13:57:02;;;;;;;1.10;0.90;;;22.20;50.40;;;;;;10568442;28;20707;-79
2022/09/15 14:02:10;;;;;;;1.70;0.97;;;22.10;49.70;;;;;;10574492;27;20268;-78
2022/09/15 14:07:21;;;;;;;0.60;0.60;;;22.10;49.60;;;;;;10543003;27;20227;-78
2022/09/15 14:12:25;;;;;;;1.07;0.90;;;22.00;49.10;;;;;;10566290;27;20253;-77
2022/09/15 14:17:30;;;;;;;7.00;1.33;;;21.90;48.80;;;;;;10567577;27;20223;-78
2022/09/15 14:22:34;;;;;;;0.80;0.80;;;21.80;49.00;;;;;;10566020;27;20219;-78
2022/09/15 14:27:42;;;;;;;1.60;1.10;;;21.60;49.00;;;;;;10571183;27;20226;-76
2022/09/15 14:32:51;;;;;;;3.63;1.10;;;21.50;49.60;;;;;;10563885;27;20227;-78
2022/09/15 14:37:56;;;;;;;1.00;0.70;;;21.40;50.00;;;;;;10565737;27;20223;-77
2022/09/15 14:42:59;;;;;;;0.80;0.80;;;21.30;49.90;;;;;;10564790;27;20223;-77
2022/09/15 14:48:08;;;;;;;1.40;0.90;;;21.20;48.60;;;;;;10561794;27;20295;-77
2022/09/15 14:53:16;;;;;;;0.80;0.80;;;21.00;48.20;;;;;;10563090;27;20222;-77
2022/09/15 14:58:23;;;;;;;1.70;1.20;;;20.80;48.20;;;;;;10565944;28;20230;-77
2022/09/15 15:03:38;;;;;;;1.43;1.00;;;20.60;48.60;;;;;;10559532;28;21088;-77
2022/09/15 15:08:46;;;;;;;1.40;1.03;;;20.50;49.20;;;;;;10560278;28;20223;-76
2022/09/15 15:13:51;;;;;;;1.07;0.97;;;20.40;49.10;;;;;;10557747;28;20226;-76
2022/09/15 15:18:56;;;;;;;0.97;0.93;;;20.40;49.10;;;;;;10549681;28;20912;-77
2022/09/15 15:24:00;;;;;;;2.00;1.10;;;20.30;49.00;;;;;;10554289;28;20643;-76
2022/09/15 15:29:07;;;;;;;1.10;1.00;;;20.30;49.00;;;;;;10552443;28;20227;-76
2022/09/15 15:34:24;;;;;;;1.10;1.00;;;20.20;48.90;;;;;;10551287;28;20223;-76
2022/09/15 15:39:28;;;;;;;2.07;1.17;;;20.20;48.90;;;;;;10556406;28;20235;-77
2022/09/15 15:44:32;;;;;;;1.40;1.20;;;20.20;48.40;;;;;;10564294;28;20269;-79
2022/09/15 15:49:37;;;;;;;1.30;1.20;;;20.10;47.80;;;;;;10567245;28;20244;-81
2022/09/15 15:54:58;;;;;;;1.37;1.27;;;19.90;47.80;;;;;;10574172;28;20605;-77
2022/09/15 16:00:01;;;;;;;1.80;1.47;;;19.80;48.10;;;;;;10579189;28;20225;-80
2022/09/15 16:05:07;;;;;;;1.50;1.30;;;19.70;48.00;;;;;;10570153;28;20223;-77
2022/09/15 16:10:15;;;;;;;1.93;1.50;;;19.70;48.00;;;;;;10560897;28;20606;-77
2022/09/15 16:15:20;;;;;;;1.50;1.40;;;19.60;48.40;;;;;;10565570;28;20227;-77
2022/09/15 16:20:24;;;;;;;2.40;1.50;;;19.60;48.10;;;;;;10564674;28;20271;-76
2022/09/15 16:25:37;;;;;;;1.87;1.60;;;19.60;47.90;;;;;;10563370;28;20268;-76
2022/09/15 16:30:40;;;;;;;1.93;1.60;;;19.60;47.70;;;;;;10561654;28;20577;-77
2022/09/15 16:35:50;;;;;;;1.53;1.40;;;19.60;48.10;;;;;;10561779;28;20606;-76
2022/09/15 16:40:53;;;;;;;3.07;1.80;;;19.60;48.00;;;;;;10556577;28;20223;-76
2022/09/15 16:45:56;;;;;;;1.80;1.70;;;19.70;47.90;;;;;;10561250;28;20227;-75
2022/09/15 16:51:00;;;;;;;2.00;1.80;;;19.70;48.40;;;;;;10561728;28;20305;-75
2022/09/15 16:56:24;;;;;;;1.97;1.87;;;19.80;48.10;;;;;;10559035;28;20307;-78
2022/09/15 17:01:27;;;;;;;2.90;1.80;;;19.80;48.50;;;;;;10563634;28;20235;-78
2022/09/15 17:06:32;;;;;;;2.43;1.90;;;19.80;47.30;;;;;;10560817;28;20285;-79
2022/09/15 17:11:35;;;;;;;1.90;1.77;;;19.80;47.40;;;;;;10557910;28;20265;-77
2022/09/15 17:16:38;;;;;;;2.90;2.33;;;19.80;47.20;;;;;;10546961;28;20224;-79
2022/09/15 17:21:43;;;;;;;3.00;2.10;;;19.70;47.20;;;;;;10549883;28;20696;-80
2022/09/15 17:26:46;;;;;;;2.47;2.27;;;19.70;46.70;;;;;;10566236;27;20226;-74
2022/09/15 17:31:49;;;;;;;2.57;2.37;;;19.60;46.60;;;;;;10559450;28;20223;-74
2022/09/15 17:36:53;;;;;;;2.83;2.33;;;19.50;46.70;;;;;;10557695;28;20288;-77
2022/09/15 17:41:56;;;;;;;5.93;2.47;;;19.40;46.70;;;;;;10560341;27;20316;-74
2022/09/15 17:47:00;;;;;;;3.67;2.47;;;19.30;46.90;;;;;;10558080;27;20866;-76
2022/09/15 17:52:05;;;;;;;4.63;2.87;;;19.20;46.90;;;;;;10561470;28;20223;-82
2022/09/15 17:57:09;;;;;;;3.73;2.73;;;19.10;47.00;;;;;;10561444;28;20222;-77
2022/09/15 18:02:18;;;;;;;2.90;2.60;;;19.00;47.00;;;;;;10560096;28;20227;-76
2022/09/15 18:07:23;;;;;;;2.90;2.60;;;18.90;47.50;;;;;;10558920;28;20255;-76
2022/09/15 18:12:26;;;;;;;2.53;2.27;;;18.90;47.80;;;;;;10559795;28;20252;-77
2022/09/15 18:17:29;;;;;;;2.97;2.47;;;18.80;47.70;;;;;;10556494;28;20227;-77
2022/09/15 18:22:34;;;;;;;2.90;2.57;;;18.80;47.70;;;;;;10553759;27;20272;-77
2022/09/15 18:27:37;;;;;;;2.70;2.30;;;18.80;47.70;;;;;;10557110;28;20267;-76
2022/09/15 18:32:40;;;;;;;3.13;2.70;;;18.60;47.50;;;;;;10560015;28;20271;-76
2022/09/15 18:37:46;;;;;;;3.00;2.70;;;18.60;47.50;;;;;;10562936;27;20238;-75
2022/09/15 18:42:49;;;;;;;2.57;2.37;;;18.50;47.40;;;;;;10554316;28;20219;-76
2022/09/15 18:47:53;;;;;;;3.27;2.10;;;18.50;47.40;;;;;;10554501;28;20230;-75
2022/09/15 18:52:58;;;;;;;2.40;2.20;;;18.40;47.30;;;;;;10554955;28;20238;-75
2022/09/15 18:58:02;;;;;;;2.60;2.40;;;18.40;48.10;;;;;;10557101;28;20230;-76
2022/09/15 19:03:08;;;;;;;2.73;2.40;;;18.40;47.90;;;;;;10553801;28;20230;-75
2022/09/15 19:08:12;;;;;;;2.30;2.20;;;18.40;47.40;;;;;;10555402;28;20236;-76
2022/09/15 19:13:16;;;;;;;2.70;2.50;;;18.40;47.50;;;;;;10547996;28;20230;-75
2022/09/15 19:18:19;;;;;;;3.73;2.37;;;18.30;47.20;;;;;;10549237;28;20260;-75
2022/09/15 19:23:23;;;;;;;2.50;2.30;;;18.30;47.20;;;;;;10550593;28;20238;-76
2022/09/15 19:28:26;;;;;;;3.20;2.53;;;18.30;47.30;;;;;;10554093;28;20793;-75
2022/09/15 19:33:29;;;;;;;3.37;2.40;;;18.20;47.40;;;;;;10552399;28;20222;-76
2022/09/15 19:38:35;;;;;;;2.70;2.50;;;18.20;47.50;;;;;;10555617;28;20227;-76
2022/09/15 19:43:41;;;;;;;3.07;2.80;;;18.10;47.80;;;;;;10543949;27;20251;-76
2022/09/15 19:48:45;;;;;;;3.23;2.77;;;18.10;47.90;;;;;;10553160;28;20769;-76
2022/09/15 19:53:55;;;;;;;2.93;2.73;;;18.00;47.60;;;;;;10552125;28;20339;-76
2022/09/15 19:58:59;;;;;;;2.70;2.50;;;18.00;48.00;;;;;;10554215;28;20223;-76
2022/09/15 20:04:05;;;;;;;2.63;2.43;;;18.00;47.70;;;;;;10552171;28;20291;-76
2022/09/15 20:09:10;;;;;;;2.80;2.60;;;18.00;47.80;;;;;;10554741;28;20223;-76
2022/09/15 20:14:13;;;;;;;2.77;2.57;;;18.00;48.60;;;;;;10551701;28;20612;-76
2022/09/15 20:19:16;;;;;;;3.37;2.90;;;18.00;47.50;;;;;;10553349;28;20249;-76
2022/09/15 20:24:22;;;;;;;3.90;2.50;;;18.00;47.60;;;;;;10552935;28;20266;-76
2022/09/15 20:29:26;;;;;;;2.70;2.50;;;18.00;48.00;;;;;;10550819;28;20223;-76
2022/09/15 20:34:30;;;;;;;3.37;2.90;;;18.00;48.00;;;;;;10554109;28;20251;-76
2022/09/15 20:39:35;;;;;;;3.20;2.90;;;18.00;48.60;;;;;;10554974;28;20226;-76
2022/09/15 20:44:38;;;;;;;3.00;2.80;;;18.00;47.70;;;;;;10550699;28;20219;-76
2022/09/15 20:49:41;;;;;;;6.17;3.20;;;18.00;47.10;;;;;;10556060;28;20592;-76
2022/09/15 20:54:46;;;;;;;3.73;3.43;;;17.90;47.00;;;;;;10553849;28;20237;-76
2022/09/15 20:59:49;;;;;;;3.97;3.67;;;17.90;47.60;;;;;;10553953;28;20223;-76
2022/09/15 21:04:52;;;;;;;3.80;3.20;;;17.80;47.60;;;;;;10561668;28;20227;-76
2022/09/15 21:09:57;;;;;;;5.53;4.00;;;17.80;47.60;;;;;;10560220;28;20223;-76
2022/09/15 21:15:00;;;;;;;4.47;3.90;;;17.70;47.70;;;;;;10561565;28;20238;-76
2022/09/15 21:20:03;;;;;;;3.40;3.10;;;17.70;47.50;;;;;;10557124;28;20223;-75
2022/09/15 21:25:08;;;;;;;4.53;4.13;;;17.70;47.70;;;;;;10556499;28;20634;-76
2022/09/15 21:30:12;;;;;;;4.00;3.63;;;17.60;47.70;;;;;;10559329;28;20593;-76
2022/09/15 21:35:15;;;;;;;3.70;3.40;;;17.60;47.60;;;;;;10561068;28;20235;-75
2022/09/15 21:40:20;;;;;;;3.47;3.17;;;17.60;47.80;;;;;;10561150;27;20918;-76
2022/09/15 21:45:23;;;;;;;3.70;3.40;;;17.60;47.60;;;;;;10559483;27;20237;-76
2022/09/15 21:50:28;;;;;;;3.93;3.50;;;17.60;47.40;;;;;;10556157;28;20227;-76
2022/09/15 21:55:36;;;;;;;4.07;3.77;;;17.70;47.70;;;;;;10560837;28;20590;-76
2022/09/15 22:00:40;;;;;;;3.80;3.40;;;17.60;47.60;;;;;;10561496;27;21189;-76
2022/09/15 22:05:44;;;;;;;3.13;2.93;;;17.70;47.40;;;;;;10556928;28;20230;-76
2022/09/15 22:10:49;;;;;;;4.17;3.87;;;17.70;47.20;;;;;;10558414;28;20223;-76
2022/09/15 22:15:59;;;;;;;4.87;4.47;;;17.70;46.70;;;;;;10552208;27;20233;-76
2022/09/15 22:21:04;;;;;;;4.00;3.70;;;17.60;46.70;;;;;;10555828;28;20277;-76
2022/09/15 22:26:11;;;;;;;4.47;4.07;;;17.60;46.60;;;;;;10552612;28;20231;-77
2022/09/15 22:31:16;;;;;;;4.17;3.87;;;17.60;46.60;;;;;;10556073;28;20320;-76
2022/09/15 22:36:21;;;;;;;4.70;4.30;;;17.50;46.60;;;;;;10549621;28;20322;-76
2022/09/15 22:41:33;;;;;;;4.93;4.53;;;17.50;46.70;;;;;;10555277;27;20242;-76
2022/09/15 22:46:36;;;;;;;3.87;3.57;;;17.50;46.50;;;;;;10553395;28;20227;-76
2022/09/15 22:51:39;;;;;;;4.37;4.00;;;17.50;46.60;;;;;;10552633;28;20230;-76
2022/09/15 22:56:45;;;;;;;5.30;4.77;;;17.40;46.60;;;;;;10556703;28;20227;-76
2022/09/15 23:01:48;;;;;;;5.00;4.60;;;17.40;46.50;;;;;;10552347;28;20991;-76
2022/09/15 23:06:52;;;;;;;4.70;4.30;;;17.40;46.50;;;;;;10556973;27;20258;-76
2022/09/15 23:11:56;;;;;;;4.17;3.77;;;17.30;47.00;;;;;;10554871;28;20650;-76
2022/09/15 23:16:59;;;;;;;4.73;4.33;;;17.30;47.00;;;;;;10554527;28;20238;-76
2022/09/15 23:22:04;;;;;;;5.17;4.77;;;17.30;46.70;;;;;;10563391;27;20228;-76
2022/09/15 23:27:08;;;;;;;4.60;4.23;;;17.30;46.30;;;;;;10555899;28;20651;-77
2022/09/15 23:32:11;;;;;;;5.10;3.70;;;17.20;46.30;;;;;;10549411;28;20239;-76
2022/09/15 23:37:14;;;;;;;4.37;3.97;;;17.20;46.30;;;;;;10550225;27;20229;-77
2022/09/15 23:42:19;;;;;;;4.40;4.10;;;17.20;46.30;;;;;;10552688;28;20231;-76
2022/09/15 23:47:22;;;;;;;5.40;3.67;;;17.10;46.20;;;;;;10553667;28;20266;-76
2022/09/15 23:52:25;;;;;;;4.50;4.10;;;17.10;46.20;;;;;;10553463;28;20260;-76
2022/09/15 23:57:30;;;;;;;5.70;5.20;;;17.10;46.20;;;;;;10552669;28;20230;-76
